sensor_id;sensor_type;location;lat;lon;timestamp;P1;durP1;ratioP1;P2;durP2;ratioP2
30408;SDS011;17207;52.960;5.916;2023-06-22T00:02:13;2.88;;;1.30;;
30408;SDS011;17207;52.960;5.916;2023-06-22T00:04:39;1.90;;;1.13;;
30408;SDS011;17207;52.960;5.916;2023-06-22T00:07:05;1.98;;;1.35;;
30408;SDS011;17207;52.960;5.916;2023-06-22T00:09:31;1.27;;;0.98;;
30408;SDS011;17207;52.960;5.916;2023-06-22T00:11:58;1.30;;;1.13;;
30408;SDS011;17207;52.960;5.916;2023-06-22T00:14:24;1.80;;;1.23;;
30408;SDS011;17207;52.960;5.916;2023-06-22T00:16:50;1.20;;;1.02;;
30408;SDS011;17207;52.960;5.916;2023-06-22T00:19:20;1.73;;;1.25;;
30408;SDS011;17207;52.960;5.916;2023-06-22T00:21:46;1.87;;;1.30;;
30408;SDS011;17207;52.960;5.916;2023-06-22T00:24:13;4.35;;;1.30;;
30408;SDS011;17207;52.960;5.916;2023-06-22T00:26:39;1.85;;;1.20;;
30408;SDS011;17207;52.960;5.916;2023-06-22T00:29:05;1.70;;;1.17;;
30408;SDS011;17207;52.960;5.916;2023-06-22T00:31:31;1.42;;;1.10;;
30408;SDS011;17207;52.960;5.916;2023-06-22T00:33:57;1.48;;;1.08;;
30408;SDS011;17207;52.960;5.916;2023-06-22T00:36:23;1.23;;;1.13;;
30408;SDS011;17207;52.960;5.916;2023-06-22T00:38:49;3.03;;;1.42;;
30408;SDS011;17207;52.960;5.916;2023-06-22T00:41:16;0.95;;;0.90;;
30408;SDS011;17207;52.960;5.916;2023-06-22T00:43:42;1.95;;;1.33;;
30408;SDS011;17207;52.960;5.916;2023-06-22T00:46:08;1.42;;;0.98;;
30408;SDS011;17207;52.960;5.916;2023-06-22T00:48:35;1.55;;;1.10;;
30408;SDS011;17207;52.960;5.916;2023-06-22T00:51:02;1.45;;;1.08;;
30408;SDS011;17207;52.960;5.916;2023-06-22T00:53:28;1.55;;;1.20;;
30408;SDS011;17207;52.960;5.916;2023-06-22T00:55:54;3.58;;;1.27;;
30408;SDS011;17207;52.960;5.916;2023-06-22T00:58:21;1.58;;;1.13;;
30408;SDS011;17207;52.960;5.916;2023-06-22T01:00:47;1.50;;;1.15;;
30408;SDS011;17207;52.960;5.916;2023-06-22T01:03:14;1.52;;;1.00;;
30408;SDS011;17207;52.960;5.916;2023-06-22T01:05:41;1.40;;;1.30;;
30408;SDS011;17207;52.960;5.916;2023-06-22T01:08:29;3.00;;;1.30;;
30408;SDS011;17207;52.960;5.916;2023-06-22T01:11:01;2.00;;;1.10;;
30408;SDS011;17207;52.960;5.916;2023-06-22T01:13:32;2.35;;;1.17;;
30408;SDS011;17207;52.960;5.916;2023-06-22T01:18:31;1.67;;;1.23;;
30408;SDS011;17207;52.960;5.916;2023-06-22T01:20:58;1.65;;;1.13;;
30408;SDS011;17207;52.960;5.916;2023-06-22T01:23:26;1.90;;;1.17;;
30408;SDS011;17207;52.960;5.916;2023-06-22T01:25:59;2.17;;;1.15;;
30408;SDS011;17207;52.960;5.916;2023-06-22T01:28:45;2.05;;;1.13;;
30408;SDS011;17207;52.960;5.916;2023-06-22T01:31:12;1.10;;;0.90;;
30408;SDS011;17207;52.960;5.916;2023-06-22T01:33:39;1.60;;;1.20;;
30408;SDS011;17207;52.960;5.916;2023-06-22T01:36:06;1.23;;;1.02;;
30408;SDS011;17207;52.960;5.916;2023-06-22T01:38:33;1.60;;;1.02;;
30408;SDS011;17207;52.960;5.916;2023-06-22T01:41:00;2.17;;;1.33;;
30408;SDS011;17207;52.960;5.916;2023-06-22T01:43:27;1.60;;;1.30;;
30408;SDS011;17207;52.960;5.916;2023-06-22T01:45:53;1.58;;;0.95;;
30408;SDS011;17207;52.960;5.916;2023-06-22T01:48:20;2.17;;;1.10;;
30408;SDS011;17207;52.960;5.916;2023-06-22T01:50:46;1.75;;;1.05;;
30408;SDS011;17207;52.960;5.916;2023-06-22T01:53:12;1.55;;;1.20;;
30408;SDS011;17207;52.960;5.916;2023-06-22T01:55:38;1.42;;;1.17;;
30408;SDS011;17207;52.960;5.916;2023-06-22T01:58:05;2.40;;;1.30;;
30408;SDS011;17207;52.960;5.916;2023-06-22T02:00:35;1.02;;;0.80;;
30408;SDS011;17207;52.960;5.916;2023-06-22T02:03:05;1.70;;;1.00;;
30408;SDS011;17207;52.960;5.916;2023-06-22T02:05:36;1.08;;;0.95;;
30408;SDS011;17207;52.960;5.916;2023-06-22T02:08:13;1.10;;;1.00;;
30408;SDS011;17207;52.960;5.916;2023-06-22T02:10:43;2.75;;;1.20;;
30408;SDS011;17207;52.960;5.916;2023-06-22T02:13:10;2.88;;;1.20;;
30408;SDS011;17207;52.960;5.916;2023-06-22T02:15:36;1.73;;;1.17;;
30408;SDS011;17207;52.960;5.916;2023-06-22T02:18:02;0.75;;;0.75;;
30408;SDS011;17207;52.960;5.916;2023-06-22T02:20:28;1.25;;;1.15;;
30408;SDS011;17207;52.960;5.916;2023-06-22T02:22:54;1.83;;;1.20;;
30408;SDS011;17207;52.960;5.916;2023-06-22T02:25:21;2.47;;;1.10;;
30408;SDS011;17207;52.960;5.916;2023-06-22T02:27:47;1.40;;;1.00;;
30408;SDS011;17207;52.960;5.916;2023-06-22T02:30:13;1.15;;;1.00;;
30408;SDS011;17207;52.960;5.916;2023-06-22T02:35:08;1.47;;;1.20;;
30408;SDS011;17207;52.960;5.916;2023-06-22T02:37:35;2.90;;;1.10;;
30408;SDS011;17207;52.960;5.916;2023-06-22T02:40:04;1.20;;;1.10;;
30408;SDS011;17207;52.960;5.916;2023-06-22T02:42:30;5.45;;;1.35;;
30408;SDS011;17207;52.960;5.916;2023-06-22T02:44:56;1.65;;;1.23;;
30408;SDS011;17207;52.960;5.916;2023-06-22T02:47:22;1.50;;;1.00;;
30408;SDS011;17207;52.960;5.916;2023-06-22T02:49:48;1.88;;;1.30;;
30408;SDS011;17207;52.960;5.916;2023-06-22T02:52:14;1.10;;;1.00;;
30408;SDS011;17207;52.960;5.916;2023-06-22T02:54:40;1.60;;;1.13;;
30408;SDS011;17207;52.960;5.916;2023-06-22T02:57:06;1.65;;;1.38;;
30408;SDS011;17207;52.960;5.916;2023-06-22T02:59:38;1.90;;;1.58;;
30408;SDS011;17207;52.960;5.916;2023-06-22T03:02:06;2.78;;;1.45;;
30408;SDS011;17207;52.960;5.916;2023-06-22T03:04:32;1.20;;;1.10;;
30408;SDS011;17207;52.960;5.916;2023-06-22T03:06:58;1.95;;;1.38;;
30408;SDS011;17207;52.960;5.916;2023-06-22T03:09:26;1.55;;;1.15;;
30408;SDS011;17207;52.960;5.916;2023-06-22T03:11:53;1.30;;;1.20;;
30408;SDS011;17207;52.960;5.916;2023-06-22T03:14:19;1.50;;;1.40;;
30408;SDS011;17207;52.960;5.916;2023-06-22T03:16:45;1.67;;;1.45;;
30408;SDS011;17207;52.960;5.916;2023-06-22T03:19:11;2.00;;;1.42;;
30408;SDS011;17207;52.960;5.916;2023-06-22T03:21:38;2.30;;;1.20;;
30408;SDS011;17207;52.960;5.916;2023-06-22T03:24:04;2.00;;;1.17;;
30408;SDS011;17207;52.960;5.916;2023-06-22T03:26:31;2.00;;;1.50;;
30408;SDS011;17207;52.960;5.916;2023-06-22T03:28:57;1.92;;;1.50;;
30408;SDS011;17207;52.960;5.916;2023-06-22T03:31:23;1.23;;;1.13;;
30408;SDS011;17207;52.960;5.916;2023-06-22T03:33:49;4.40;;;1.95;;
30408;SDS011;17207;52.960;5.916;2023-06-22T03:36:16;1.92;;;1.52;;
30408;SDS011;17207;52.960;5.916;2023-06-22T03:38:45;1.63;;;1.48;;
30408;SDS011;17207;52.960;5.916;2023-06-22T03:41:11;1.83;;;1.65;;
30408;SDS011;17207;52.960;5.916;2023-06-22T03:43:38;1.60;;;1.40;;
30408;SDS011;17207;52.960;5.916;2023-06-22T03:46:04;1.60;;;1.40;;
30408;SDS011;17207;52.960;5.916;2023-06-22T03:48:30;1.70;;;1.60;;
30408;SDS011;17207;52.960;5.916;2023-06-22T03:50:56;2.45;;;1.58;;
30408;SDS011;17207;52.960;5.916;2023-06-22T03:53:22;2.40;;;1.67;;
30408;SDS011;17207;52.960;5.916;2023-06-22T03:55:49;1.65;;;1.55;;
30408;SDS011;17207;52.960;5.916;2023-06-22T03:58:16;2.25;;;1.63;;
30408;SDS011;17207;52.960;5.916;2023-06-22T04:00:44;2.13;;;1.67;;
30408;SDS011;17207;52.960;5.916;2023-06-22T04:03:10;4.17;;;1.50;;
30408;SDS011;17207;52.960;5.916;2023-06-22T04:05:38;1.77;;;1.50;;
30408;SDS011;17207;52.960;5.916;2023-06-22T04:08:04;1.40;;;1.30;;
30408;SDS011;17207;52.960;5.916;2023-06-22T04:10:30;2.35;;;1.60;;
30408;SDS011;17207;52.960;5.916;2023-06-22T04:12:56;1.83;;;1.50;;
30408;SDS011;17207;52.960;5.916;2023-06-22T04:15:22;2.08;;;1.42;;
30408;SDS011;17207;52.960;5.916;2023-06-22T04:17:48;2.72;;;1.73;;
30408;SDS011;17207;52.960;5.916;2023-06-22T04:20:14;1.83;;;1.40;;
30408;SDS011;17207;52.960;5.916;2023-06-22T04:22:40;3.72;;;1.83;;
30408;SDS011;17207;52.960;5.916;2023-06-22T04:25:06;1.90;;;1.60;;
30408;SDS011;17207;52.960;5.916;2023-06-22T04:27:33;2.65;;;1.90;;
30408;SDS011;17207;52.960;5.916;2023-06-22T04:30:05;2.17;;;1.63;;
30408;SDS011;17207;52.960;5.916;2023-06-22T04:32:32;1.30;;;1.20;;
30408;SDS011;17207;52.960;5.916;2023-06-22T04:34:58;1.88;;;1.45;;
30408;SDS011;17207;52.960;5.916;2023-06-22T04:37:25;1.50;;;1.30;;
30408;SDS011;17207;52.960;5.916;2023-06-22T04:39:51;2.75;;;1.58;;
30408;SDS011;17207;52.960;5.916;2023-06-22T04:42:18;2.63;;;1.83;;
30408;SDS011;17207;52.960;5.916;2023-06-22T04:44:44;2.58;;;1.80;;
30408;SDS011;17207;52.960;5.916;2023-06-22T04:47:10;3.63;;;1.95;;
30408;SDS011;17207;52.960;5.916;2023-06-22T04:49:36;4.07;;;2.05;;
30408;SDS011;17207;52.960;5.916;2023-06-22T04:52:05;3.33;;;2.38;;
30408;SDS011;17207;52.960;5.916;2023-06-22T04:54:32;2.60;;;1.48;;
30408;SDS011;17207;52.960;5.916;2023-06-22T04:56:59;2.75;;;2.00;;
30408;SDS011;17207;52.960;5.916;2023-06-22T04:59:28;2.22;;;2.00;;
30408;SDS011;17207;52.960;5.916;2023-06-22T05:02:01;2.95;;;2.03;;
30408;SDS011;17207;52.960;5.916;2023-06-22T05:04:28;4.07;;;2.45;;
30408;SDS011;17207;52.960;5.916;2023-06-22T05:06:56;2.88;;;2.00;;
30408;SDS011;17207;52.960;5.916;2023-06-22T05:09:22;2.13;;;1.73;;
30408;SDS011;17207;52.960;5.916;2023-06-22T05:11:49;3.08;;;2.10;;
30408;SDS011;17207;52.960;5.916;2023-06-22T05:14:16;3.65;;;1.88;;
30408;SDS011;17207;52.960;5.916;2023-06-22T05:16:42;3.63;;;1.88;;
30408;SDS011;17207;52.960;5.916;2023-06-22T05:19:08;6.20;;;2.20;;
30408;SDS011;17207;52.960;5.916;2023-06-22T05:21:34;2.95;;;2.17;;
30408;SDS011;17207;52.960;5.916;2023-06-22T05:24:00;5.05;;;2.35;;
30408;SDS011;17207;52.960;5.916;2023-06-22T05:26:28;2.58;;;2.00;;
30408;SDS011;17207;52.960;5.916;2023-06-22T05:28:54;3.67;;;2.03;;
30408;SDS011;17207;52.960;5.916;2023-06-22T05:31:20;3.42;;;2.00;;
30408;SDS011;17207;52.960;5.916;2023-06-22T05:33:46;2.95;;;2.20;;
30408;SDS011;17207;52.960;5.916;2023-06-22T05:36:13;4.85;;;2.03;;
30408;SDS011;17207;52.960;5.916;2023-06-22T05:38:39;3.50;;;2.40;;
30408;SDS011;17207;52.960;5.916;2023-06-22T05:41:06;2.83;;;1.92;;
30408;SDS011;17207;52.960;5.916;2023-06-22T05:43:32;3.70;;;2.70;;
30408;SDS011;17207;52.960;5.916;2023-06-22T05:45:59;2.55;;;1.83;;
30408;SDS011;17207;52.960;5.916;2023-06-22T05:48:25;2.53;;;2.13;;
30408;SDS011;17207;52.960;5.916;2023-06-22T05:50:52;2.60;;;2.00;;
30408;SDS011;17207;52.960;5.916;2023-06-22T05:53:18;3.47;;;2.38;;
30408;SDS011;17207;52.960;5.916;2023-06-22T05:55:44;3.25;;;1.98;;
30408;SDS011;17207;52.960;5.916;2023-06-22T05:58:10;3.72;;;2.47;;
30408;SDS011;17207;52.960;5.916;2023-06-22T06:00:36;2.28;;;1.88;;
30408;SDS011;17207;52.960;5.916;2023-06-22T06:03:02;2.70;;;1.95;;
30408;SDS011;17207;52.960;5.916;2023-06-22T06:05:37;3.65;;;2.38;;
30408;SDS011;17207;52.960;5.916;2023-06-22T06:08:04;2.70;;;1.95;;
30408;SDS011;17207;52.960;5.916;2023-06-22T06:10:31;7.35;;;2.15;;
30408;SDS011;17207;52.960;5.916;2023-06-22T06:12:57;2.77;;;2.13;;
30408;SDS011;17207;52.960;5.916;2023-06-22T06:15:23;2.08;;;1.80;;
30408;SDS011;17207;52.960;5.916;2023-06-22T06:17:50;6.63;;;2.20;;
30408;SDS011;17207;52.960;5.916;2023-06-22T06:20:18;2.00;;;1.80;;
30408;SDS011;17207;52.960;5.916;2023-06-22T06:22:45;2.53;;;1.77;;
30408;SDS011;17207;52.960;5.916;2023-06-22T06:25:11;3.22;;;2.42;;
30408;SDS011;17207;52.960;5.916;2023-06-22T06:27:41;4.28;;;2.13;;
30408;SDS011;17207;52.960;5.916;2023-06-22T06:30:07;3.80;;;2.83;;
30408;SDS011;17207;52.960;5.916;2023-06-22T06:32:33;3.83;;;2.10;;
30408;SDS011;17207;52.960;5.916;2023-06-22T06:34:59;3.72;;;2.00;;
30408;SDS011;17207;52.960;5.916;2023-06-22T06:37:25;3.92;;;2.63;;
30408;SDS011;17207;52.960;5.916;2023-06-22T06:39:52;11.00;;;2.40;;
30408;SDS011;17207;52.960;5.916;2023-06-22T06:42:18;5.03;;;2.70;;
30408;SDS011;17207;52.960;5.916;2023-06-22T06:44:44;3.08;;;2.13;;
30408;SDS011;17207;52.960;5.916;2023-06-22T06:47:11;1.80;;;1.70;;
30408;SDS011;17207;52.960;5.916;2023-06-22T06:49:37;3.05;;;2.15;;
30408;SDS011;17207;52.960;5.916;2023-06-22T06:52:03;4.38;;;2.45;;
30408;SDS011;17207;52.960;5.916;2023-06-22T06:54:29;2.47;;;2.17;;
30408;SDS011;17207;52.960;5.916;2023-06-22T06:56:55;2.38;;;1.80;;
30408;SDS011;17207;52.960;5.916;2023-06-22T06:59:21;4.47;;;1.90;;
30408;SDS011;17207;52.960;5.916;2023-06-22T07:01:47;2.70;;;1.63;;
30408;SDS011;17207;52.960;5.916;2023-06-22T07:04:13;4.53;;;2.28;;
30408;SDS011;17207;52.960;5.916;2023-06-22T07:06:40;2.45;;;2.03;;
30408;SDS011;17207;52.960;5.916;2023-06-22T07:09:07;2.22;;;1.73;;
30408;SDS011;17207;52.960;5.916;2023-06-22T07:11:33;8.88;;;5.15;;
30408;SDS011;17207;52.960;5.916;2023-06-22T07:14:00;5.30;;;2.67;;
30408;SDS011;17207;52.960;5.916;2023-06-22T07:16:26;2.53;;;1.83;;
30408;SDS011;17207;52.960;5.916;2023-06-22T07:18:53;4.05;;;2.33;;
30408;SDS011;17207;52.960;5.916;2023-06-22T07:21:19;2.88;;;1.77;;
30408;SDS011;17207;52.960;5.916;2023-06-22T07:23:45;3.15;;;2.28;;
30408;SDS011;17207;52.960;5.916;2023-06-22T07:26:11;1.52;;;1.42;;
30408;SDS011;17207;52.960;5.916;2023-06-22T07:28:38;2.45;;;1.95;;
30408;SDS011;17207;52.960;5.916;2023-06-22T07:33:31;5.70;;;1.83;;
30408;SDS011;17207;52.960;5.916;2023-06-22T07:35:57;1.95;;;1.50;;
30408;SDS011;17207;52.960;5.916;2023-06-22T07:38:23;2.63;;;1.85;;
30408;SDS011;17207;52.960;5.916;2023-06-22T07:40:49;2.03;;;1.55;;
30408;SDS011;17207;52.960;5.916;2023-06-22T07:43:18;1.95;;;1.30;;
30408;SDS011;17207;52.960;5.916;2023-06-22T07:45:50;5.05;;;1.83;;
30408;SDS011;17207;52.960;5.916;2023-06-22T07:48:22;2.80;;;1.50;;
30408;SDS011;17207;52.960;5.916;2023-06-22T07:50:48;2.47;;;1.65;;
30408;SDS011;17207;52.960;5.916;2023-06-22T07:53:14;3.95;;;1.85;;
30408;SDS011;17207;52.960;5.916;2023-06-22T07:55:41;2.95;;;1.58;;
30408;SDS011;17207;52.960;5.916;2023-06-22T07:58:07;1.50;;;1.40;;
30408;SDS011;17207;52.960;5.916;2023-06-22T08:00:33;2.17;;;1.67;;
30408;SDS011;17207;52.960;5.916;2023-06-22T08:02:59;1.67;;;1.42;;
30408;SDS011;17207;52.960;5.916;2023-06-22T08:05:28;1.65;;;1.40;;
30408;SDS011;17207;52.960;5.916;2023-06-22T08:07:55;3.88;;;1.80;;
30408;SDS011;17207;52.960;5.916;2023-06-22T08:10:21;2.00;;;1.55;;
30408;SDS011;17207;52.960;5.916;2023-06-22T08:12:47;1.50;;;1.40;;
30408;SDS011;17207;52.960;5.916;2023-06-22T08:15:13;2.28;;;1.67;;
30408;SDS011;17207;52.960;5.916;2023-06-22T08:17:39;2.33;;;1.73;;
30408;SDS011;17207;52.960;5.916;2023-06-22T08:20:06;2.05;;;1.60;;
30408;SDS011;17207;52.960;5.916;2023-06-22T08:22:36;2.95;;;1.40;;
30408;SDS011;17207;52.960;5.916;2023-06-22T08:25:03;1.70;;;1.58;;
30408;SDS011;17207;52.960;5.916;2023-06-22T08:27:29;2.25;;;1.40;;
30408;SDS011;17207;52.960;5.916;2023-06-22T08:29:59;3.20;;;1.40;;
30408;SDS011;17207;52.960;5.916;2023-06-22T08:32:25;1.85;;;1.35;;
30408;SDS011;17207;52.960;5.916;2023-06-22T08:34:55;2.05;;;1.30;;
30408;SDS011;17207;52.960;5.916;2023-06-22T08:37:22;1.75;;;1.20;;
30408;SDS011;17207;52.960;5.916;2023-06-22T08:39:59;3.42;;;1.67;;
30408;SDS011;17207;52.960;5.916;2023-06-22T08:42:26;2.15;;;1.55;;
30408;SDS011;17207;52.960;5.916;2023-06-22T08:44:52;1.70;;;1.58;;
30408;SDS011;17207;52.960;5.916;2023-06-22T08:47:18;1.88;;;1.33;;
30408;SDS011;17207;52.960;5.916;2023-06-22T08:49:46;2.08;;;1.55;;
30408;SDS011;17207;52.960;5.916;2023-06-22T08:52:12;1.73;;;1.50;;
30408;SDS011;17207;52.960;5.916;2023-06-22T08:54:39;2.17;;;1.70;;
30408;SDS011;17207;52.960;5.916;2023-06-22T08:57:05;1.65;;;1.55;;
30408;SDS011;17207;52.960;5.916;2023-06-22T08:59:31;1.40;;;1.20;;
30408;SDS011;17207;52.960;5.916;2023-06-22T09:01:57;1.35;;;1.17;;
30408;SDS011;17207;52.960;5.916;2023-06-22T09:04:23;1.83;;;1.63;;
30408;SDS011;17207;52.960;5.916;2023-06-22T09:06:49;1.45;;;1.35;;
30408;SDS011;17207;52.960;5.916;2023-06-22T09:09:17;1.75;;;1.60;;
30408;SDS011;17207;52.960;5.916;2023-06-22T09:11:44;2.20;;;1.40;;
30408;SDS011;17207;52.960;5.916;2023-06-22T09:14:10;1.45;;;1.35;;
30408;SDS011;17207;52.960;5.916;2023-06-22T09:16:36;1.95;;;1.27;;
30408;SDS011;17207;52.960;5.916;2023-06-22T09:19:02;1.50;;;1.25;;
30408;SDS011;17207;52.960;5.916;2023-06-22T09:21:28;1.15;;;1.05;;
30408;SDS011;17207;52.960;5.916;2023-06-22T09:23:55;1.83;;;1.30;;
30408;SDS011;17207;52.960;5.916;2023-06-22T09:26:21;1.50;;;1.27;;
30408;SDS011;17207;52.960;5.916;2023-06-22T09:28:49;1.63;;;1.27;;
30408;SDS011;17207;52.960;5.916;2023-06-22T09:31:15;1.77;;;1.45;;
30408;SDS011;17207;52.960;5.916;2023-06-22T09:33:42;1.33;;;1.23;;
30408;SDS011;17207;52.960;5.916;2023-06-22T09:36:09;2.10;;;1.88;;
30408;SDS011;17207;52.960;5.916;2023-06-22T09:38:38;2.05;;;1.40;;
30408;SDS011;17207;52.960;5.916;2023-06-22T09:41:04;1.55;;;1.20;;
30408;SDS011;17207;52.960;5.916;2023-06-22T09:43:31;2.20;;;1.17;;
30408;SDS011;17207;52.960;5.916;2023-06-22T09:46:00;1.67;;;1.38;;
30408;SDS011;17207;52.960;5.916;2023-06-22T09:48:27;1.65;;;1.40;;
30408;SDS011;17207;52.960;5.916;2023-06-22T09:50:54;1.35;;;1.23;;
30408;SDS011;17207;52.960;5.916;2023-06-22T09:53:20;2.85;;;1.35;;
30408;SDS011;17207;52.960;5.916;2023-06-22T09:55:46;1.40;;;1.20;;
30408;SDS011;17207;52.960;5.916;2023-06-22T09:58:12;1.25;;;1.13;;
30408;SDS011;17207;52.960;5.916;2023-06-22T10:00:38;1.75;;;1.20;;
30408;SDS011;17207;52.960;5.916;2023-06-22T10:03:06;1.77;;;1.35;;
30408;SDS011;17207;52.960;5.916;2023-06-22T10:05:32;1.10;;;1.00;;
30408;SDS011;17207;52.960;5.916;2023-06-22T10:07:59;1.70;;;1.60;;
30408;SDS011;17207;52.960;5.916;2023-06-22T10:10:25;1.10;;;1.00;;
30408;SDS011;17207;52.960;5.916;2023-06-22T10:12:55;1.27;;;1.17;;
30408;SDS011;17207;52.960;5.916;2023-06-22T10:15:22;1.48;;;1.27;;
30408;SDS011;17207;52.960;5.916;2023-06-22T10:17:48;4.10;;;1.33;;
30408;SDS011;17207;52.960;5.916;2023-06-22T10:20:14;1.63;;;1.25;;
30408;SDS011;17207;52.960;5.916;2023-06-22T10:25:08;1.50;;;1.27;;
30408;SDS011;17207;52.960;5.916;2023-06-22T10:27:34;1.98;;;1.30;;
30408;SDS011;17207;52.960;5.916;2023-06-22T10:30:00;1.15;;;0.90;;
30408;SDS011;17207;52.960;5.916;2023-06-22T10:32:26;4.97;;;1.00;;
30408;SDS011;17207;52.960;5.916;2023-06-22T10:34:55;1.48;;;1.38;;
30408;SDS011;17207;52.960;5.916;2023-06-22T10:37:22;2.13;;;1.20;;
30408;SDS011;17207;52.960;5.916;2023-06-22T10:39:48;1.73;;;1.23;;
30408;SDS011;17207;52.960;5.916;2023-06-22T10:42:14;1.20;;;1.10;;
30408;SDS011;17207;52.960;5.916;2023-06-22T10:44:40;1.23;;;1.13;;
30408;SDS011;17207;52.960;5.916;2023-06-22T10:47:06;1.52;;;1.10;;
30408;SDS011;17207;52.960;5.916;2023-06-22T10:49:32;1.25;;;1.13;;
30408;SDS011;17207;52.960;5.916;2023-06-22T10:51:58;1.27;;;1.17;;
30408;SDS011;17207;52.960;5.916;2023-06-22T10:54:24;2.38;;;1.10;;
30408;SDS011;17207;52.960;5.916;2023-06-22T10:56:50;1.55;;;1.33;;
30408;SDS011;17207;52.960;5.916;2023-06-22T10:59:16;1.30;;;1.20;;
30408;SDS011;17207;52.960;5.916;2023-06-22T11:01:42;1.48;;;1.02;;
30408;SDS011;17207;52.960;5.916;2023-06-22T11:04:08;1.33;;;1.20;;
30408;SDS011;17207;52.960;5.916;2023-06-22T11:06:34;1.17;;;0.98;;
30408;SDS011;17207;52.960;5.916;2023-06-22T11:09:00;2.55;;;1.17;;
30408;SDS011;17207;52.960;5.916;2023-06-22T11:11:27;1.13;;;1.02;;
30408;SDS011;17207;52.960;5.916;2023-06-22T11:13:53;1.58;;;0.95;;
30408;SDS011;17207;52.960;5.916;2023-06-22T11:16:19;1.85;;;1.38;;
30408;SDS011;17207;52.960;5.916;2023-06-22T11:18:45;1.17;;;1.02;;
30408;SDS011;17207;52.960;5.916;2023-06-22T11:21:11;1.50;;;0.95;;
30408;SDS011;17207;52.960;5.916;2023-06-22T11:23:37;1.00;;;0.90;;
30408;SDS011;17207;52.960;5.916;2023-06-22T11:26:03;1.15;;;1.02;;
30408;SDS011;17207;52.960;5.916;2023-06-22T11:28:29;1.00;;;0.90;;
30408;SDS011;17207;52.960;5.916;2023-06-22T11:30:55;1.08;;;0.98;;
30408;SDS011;17207;52.960;5.916;2023-06-22T11:33:21;1.63;;;1.10;;
30408;SDS011;17207;52.960;5.916;2023-06-22T11:35:47;1.67;;;1.20;;
30408;SDS011;17207;52.960;5.916;2023-06-22T11:38:13;1.20;;;1.10;;
30408;SDS011;17207;52.960;5.916;2023-06-22T11:40:39;1.10;;;1.00;;
30408;SDS011;17207;52.960;5.916;2023-06-22T11:43:05;1.00;;;0.90;;
30408;SDS011;17207;52.960;5.916;2023-06-22T11:45:31;1.60;;;1.00;;
30408;SDS011;17207;52.960;5.916;2023-06-22T11:47:57;1.10;;;1.00;;
30408;SDS011;17207;52.960;5.916;2023-06-22T11:50:23;1.30;;;1.00;;
30408;SDS011;17207;52.960;5.916;2023-06-22T11:52:49;1.88;;;1.30;;
30408;SDS011;17207;52.960;5.916;2023-06-22T11:55:17;1.23;;;1.13;;
30408;SDS011;17207;52.960;5.916;2023-06-22T11:57:56;1.25;;;1.08;;
30408;SDS011;17207;52.960;5.916;2023-06-22T12:00:25;1.13;;;1.02;;
30408;SDS011;17207;52.960;5.916;2023-06-22T12:02:51;1.10;;;1.00;;
30408;SDS011;17207;52.960;5.916;2023-06-22T12:05:20;1.42;;;1.10;;
30408;SDS011;17207;52.960;5.916;2023-06-22T12:07:47;1.27;;;1.10;;
30408;SDS011;17207;52.960;5.916;2023-06-22T12:10:13;1.38;;;1.08;;
30408;SDS011;17207;52.960;5.916;2023-06-22T12:12:39;1.10;;;1.00;;
30408;SDS011;17207;52.960;5.916;2023-06-22T12:15:05;1.92;;;1.27;;
30408;SDS011;17207;52.960;5.916;2023-06-22T12:17:31;2.85;;;1.13;;
30408;SDS011;17207;52.960;5.916;2023-06-22T12:19:58;1.60;;;1.05;;
30408;SDS011;17207;52.960;5.916;2023-06-22T12:22:24;1.10;;;1.00;;
30408;SDS011;17207;52.960;5.916;2023-06-22T12:24:50;4.55;;;1.10;;
30408;SDS011;17207;52.960;5.916;2023-06-22T12:27:16;3.42;;;1.00;;
30408;SDS011;17207;52.960;5.916;2023-06-22T12:29:45;1.15;;;1.05;;
30408;SDS011;17207;52.960;5.916;2023-06-22T12:32:12;0.98;;;0.80;;
30408;SDS011;17207;52.960;5.916;2023-06-22T12:34:38;1.02;;;0.80;;
30408;SDS011;17207;52.960;5.916;2023-06-22T12:37:05;3.05;;;0.80;;
30408;SDS011;17207;52.960;5.916;2023-06-22T12:39:31;1.00;;;0.88;;
30408;SDS011;17207;52.960;5.916;2023-06-22T12:41:57;1.23;;;1.13;;
30408;SDS011;17207;52.960;5.916;2023-06-22T12:44:23;1.58;;;1.05;;
30408;SDS011;17207;52.960;5.916;2023-06-22T12:46:49;1.25;;;1.08;;
30408;SDS011;17207;52.960;5.916;2023-06-22T12:49:15;1.10;;;1.00;;
30408;SDS011;17207;52.960;5.916;2023-06-22T12:51:42;1.13;;;1.00;;
30408;SDS011;17207;52.960;5.916;2023-06-22T12:54:08;1.88;;;1.48;;
30408;SDS011;17207;52.960;5.916;2023-06-22T12:56:34;1.35;;;1.02;;
30408;SDS011;17207;52.960;5.916;2023-06-22T12:59:00;1.25;;;1.10;;
30408;SDS011;17207;52.960;5.916;2023-06-22T13:01:29;1.65;;;1.05;;
30408;SDS011;17207;52.960;5.916;2023-06-22T13:03:56;1.15;;;1.05;;
30408;SDS011;17207;52.960;5.916;2023-06-22T13:06:22;1.10;;;0.90;;
30408;SDS011;17207;52.960;5.916;2023-06-22T13:08:48;2.38;;;1.30;;
30408;SDS011;17207;52.960;5.916;2023-06-22T13:11:14;1.13;;;0.90;;
30408;SDS011;17207;52.960;5.916;2023-06-22T13:13:41;1.33;;;1.05;;
30408;SDS011;17207;52.960;5.916;2023-06-22T13:16:07;1.30;;;1.08;;
30408;SDS011;17207;52.960;5.916;2023-06-22T13:18:33;1.02;;;0.98;;
30408;SDS011;17207;52.960;5.916;2023-06-22T13:21:01;1.30;;;1.17;;
30408;SDS011;17207;52.960;5.916;2023-06-22T13:23:27;0.85;;;0.85;;
30408;SDS011;17207;52.960;5.916;2023-06-22T13:25:53;1.23;;;1.13;;
30408;SDS011;17207;52.960;5.916;2023-06-22T13:28:19;1.42;;;1.20;;
30408;SDS011;17207;52.960;5.916;2023-06-22T13:30:46;1.20;;;1.10;;
30408;SDS011;17207;52.960;5.916;2023-06-22T13:33:12;1.10;;;0.95;;
30408;SDS011;17207;52.960;5.916;2023-06-22T13:35:38;1.80;;;1.15;;
30408;SDS011;17207;52.960;5.916;2023-06-22T13:38:07;3.83;;;1.35;;
30408;SDS011;17207;52.960;5.916;2023-06-22T13:40:33;1.42;;;1.27;;
30408;SDS011;17207;52.960;5.916;2023-06-22T13:42:59;1.25;;;1.00;;
30408;SDS011;17207;52.960;5.916;2023-06-22T13:45:26;4.70;;;1.30;;
30408;SDS011;17207;52.960;5.916;2023-06-22T13:47:52;1.85;;;1.42;;
30408;SDS011;17207;52.960;5.916;2023-06-22T13:50:18;1.60;;;1.35;;
30408;SDS011;17207;52.960;5.916;2023-06-22T13:52:44;1.60;;;1.30;;
30408;SDS011;17207;52.960;5.916;2023-06-22T13:55:10;1.50;;;1.38;;
30408;SDS011;17207;52.960;5.916;2023-06-22T13:57:39;0.85;;;0.82;;
30408;SDS011;17207;52.960;5.916;2023-06-22T14:00:05;1.52;;;1.30;;
30408;SDS011;17207;52.960;5.916;2023-06-22T14:02:31;2.47;;;1.13;;
30408;SDS011;17207;52.960;5.916;2023-06-22T14:04:57;1.60;;;1.17;;
30408;SDS011;17207;52.960;5.916;2023-06-22T14:07:23;1.50;;;1.05;;
30408;SDS011;17207;52.960;5.916;2023-06-22T14:09:50;1.30;;;1.20;;
30408;SDS011;17207;52.960;5.916;2023-06-22T14:12:16;1.15;;;1.05;;
30408;SDS011;17207;52.960;5.916;2023-06-22T14:14:45;1.02;;;0.93;;
30408;SDS011;17207;52.960;5.916;2023-06-22T14:17:11;1.75;;;1.00;;
30408;SDS011;17207;52.960;5.916;2023-06-22T14:19:37;1.33;;;1.23;;
30408;SDS011;17207;52.960;5.916;2023-06-22T14:22:03;1.17;;;1.08;;
30408;SDS011;17207;52.960;5.916;2023-06-22T14:24:29;1.05;;;0.98;;
30408;SDS011;17207;52.960;5.916;2023-06-22T14:26:55;1.30;;;1.20;;
30408;SDS011;17207;52.960;5.916;2023-06-22T14:29:22;1.55;;;1.27;;
30408;SDS011;17207;52.960;5.916;2023-06-22T14:31:48;1.30;;;1.10;;
30408;SDS011;17207;52.960;5.916;2023-06-22T14:34:14;1.23;;;1.13;;
30408;SDS011;17207;52.960;5.916;2023-06-22T14:36:41;1.20;;;1.10;;
30408;SDS011;17207;52.960;5.916;2023-06-22T14:39:08;1.42;;;1.33;;
30408;SDS011;17207;52.960;5.916;2023-06-22T14:41:34;1.10;;;0.90;;
30408;SDS011;17207;52.960;5.916;2023-06-22T14:44:00;1.15;;;0.93;;
30408;SDS011;17207;52.960;5.916;2023-06-22T14:46:26;1.50;;;1.35;;
30408;SDS011;17207;52.960;5.916;2023-06-22T14:48:52;1.45;;;1.15;;
30408;SDS011;17207;52.960;5.916;2023-06-22T14:51:18;1.67;;;1.00;;
30408;SDS011;17207;52.960;5.916;2023-06-22T14:53:45;1.15;;;1.00;;
30408;SDS011;17207;52.960;5.916;2023-06-22T14:56:11;2.40;;;1.05;;